sensor_id;sensor_type;location;lat;lon;timestamp;temperature;humidity
21445;DHT22;10883;51.946;20.140;2023-02-02T00:01:53;3.10;99.90
21445;DHT22;10883;51.946;20.140;2023-02-02T00:04:26;3.10;99.90
21445;DHT22;10883;51.946;20.140;2023-02-02T00:06:53;3.10;99.90
21445;DHT22;10883;51.946;20.140;2023-02-02T00:09:21;3.10;99.90
21445;DHT22;10883;51.946;20.140;2023-02-02T00:11:48;3.00;99.90
21445;DHT22;10883;51.946;20.140;2023-02-02T00:14:16;3.00;99.90
21445;DHT22;10883;51.946;20.140;2023-02-02T00:16:47;2.90;99.90
21445;DHT22;10883;51.946;20.140;2023-02-02T00:19:15;2.90;99.90
21445;DHT22;10883;51.946;20.140;2023-02-02T00:21:42;2.90;99.90
21445;DHT22;10883;51.946;20.140;2023-02-02T00:24:10;2.90;99.90
21445;DHT22;10883;51.946;20.140;2023-02-02T00:26:36;3.00;99.90
21445;DHT22;10883;51.946;20.140;2023-02-02T00:29:03;3.00;99.90
21445;DHT22;10883;51.946;20.140;2023-02-02T00:31:29;3.00;99.90
21445;DHT22;10883;51.946;20.140;2023-02-02T00:33:55;3.10;99.90
21445;DHT22;10883;51.946;20.140;2023-02-02T00:36:22;3.10;99.90
21445;DHT22;10883;51.946;20.140;2023-02-02T00:38:48;3.10;99.90
21445;DHT22;10883;51.946;20.140;2023-02-02T00:41:15;3.10;99.90
21445;DHT22;10883;51.946;20.140;2023-02-02T00:43:41;3.10;99.90
21445;DHT22;10883;51.946;20.140;2023-02-02T00:46:12;3.10;99.90
21445;DHT22;10883;51.946;20.140;2023-02-02T00:48:39;3.10;99.90
21445;DHT22;10883;51.946;20.140;2023-02-02T00:51:05;3.20;99.90
21445;DHT22;10883;51.946;20.140;2023-02-02T00:53:31;3.10;99.90
21445;DHT22;10883;51.946;20.140;2023-02-02T00:55:56;3.20;99.90
21445;DHT22;10883;51.946;20.140;2023-02-02T00:58:22;3.10;99.90
21445;DHT22;10883;51.946;20.140;2023-02-02T01:00:48;3.10;99.90
21445;DHT22;10883;51.946;20.140;2023-02-02T01:03:13;3.10;99.90
21445;DHT22;10883;51.946;20.140;2023-02-02T01:05:40;3.10;99.90
21445;DHT22;10883;51.946;20.140;2023-02-02T01:08:06;3.10;99.90
21445;DHT22;10883;51.946;20.140;2023-02-02T01:10:33;3.10;99.90
21445;DHT22;10883;51.946;20.140;2023-02-02T01:12:58;3.10;99.90
21445;DHT22;10883;51.946;20.140;2023-02-02T01:15:24;3.10;99.90
21445;DHT22;10883;51.946;20.140;2023-02-02T01:17:50;3.10;99.90
21445;DHT22;10883;51.946;20.140;2023-02-02T01:20:18;3.10;99.90
21445;DHT22;10883;51.946;20.140;2023-02-02T01:22:45;3.10;99.90
21445;DHT22;10883;51.946;20.140;2023-02-02T01:25:11;3.10;99.90
21445;DHT22;10883;51.946;20.140;2023-02-02T01:27:36;3.10;99.90
21445;DHT22;10883;51.946;20.140;2023-02-02T01:30:03;3.10;99.90
21445;DHT22;10883;51.946;20.140;2023-02-02T01:32:29;3.10;99.90
21445;DHT22;10883;51.946;20.140;2023-02-02T01:34:54;3.10;99.90
21445;DHT22;10883;51.946;20.140;2023-02-02T01:37:20;3.10;99.90
21445;DHT22;10883;51.946;20.140;2023-02-02T01:39:47;3.10;99.90
21445;DHT22;10883;51.946;20.140;2023-02-02T01:42:21;3.20;99.90
21445;DHT22;10883;51.946;20.140;2023-02-02T01:47:36;3.20;99.90
21445;DHT22;10883;51.946;20.140;2023-02-02T01:50:04;3.20;99.90
21445;DHT22;10883;51.946;20.140;2023-02-02T01:52:31;3.20;99.90
21445;DHT22;10883;51.946;20.140;2023-02-02T01:55:10;3.30;99.90
21445;DHT22;10883;51.946;20.140;2023-02-02T01:57:38;3.30;99.90
21445;DHT22;10883;51.946;20.140;2023-02-02T02:00:08;3.30;99.90
21445;DHT22;10883;51.946;20.140;2023-02-02T02:02:35;3.40;99.90
21445;DHT22;10883;51.946;20.140;2023-02-02T02:05:02;3.30;99.90
21445;DHT22;10883;51.946;20.140;2023-02-02T02:07:29;3.40;99.90
21445;DHT22;10883;51.946;20.140;2023-02-02T02:09:55;3.30;99.90
21445;DHT22;10883;51.946;20.140;2023-02-02T02:12:21;3.40;99.90
21445;DHT22;10883;51.946;20.140;2023-02-02T02:14:49;3.40;99.90
21445;DHT22;10883;51.946;20.140;2023-02-02T02:20:54;3.40;99.90
21445;DHT22;10883;51.946;20.140;2023-02-02T02:27:01;3.40;99.90
21445;DHT22;10883;51.946;20.140;2023-02-02T02:38:03;3.40;99.90
21445;DHT22;10883;51.946;20.140;2023-02-02T02:40:41;3.50;99.90
21445;DHT22;10883;51.946;20.140;2023-02-02T02:43:23;3.50;99.90
21445;DHT22;10883;51.946;20.140;2023-02-02T02:45:51;3.50;99.90
21445;DHT22;10883;51.946;20.140;2023-02-02T02:48:17;3.50;99.90
21445;DHT22;10883;51.946;20.140;2023-02-02T02:50:43;3.50;99.90
21445;DHT22;10883;51.946;20.140;2023-02-02T02:53:16;3.50;99.90
21445;DHT22;10883;51.946;20.140;2023-02-02T02:56:00;3.50;99.90
21445;DHT22;10883;51.946;20.140;2023-02-02T02:58:35;3.50;99.90
21445;DHT22;10883;51.946;20.140;2023-02-02T03:01:16;3.50;99.90
21445;DHT22;10883;51.946;20.140;2023-02-02T03:04:11;3.50;99.90
21445;DHT22;10883;51.946;20.140;2023-02-02T03:06:56;3.50;99.90
21445;DHT22;10883;51.946;20.140;2023-02-02T03:09:29;3.50;99.90
21445;DHT22;10883;51.946;20.140;2023-02-02T03:11:59;3.50;99.90
21445;DHT22;10883;51.946;20.140;2023-02-02T03:14:25;3.60;99.90
21445;DHT22;10883;51.946;20.140;2023-02-02T03:16:51;3.50;99.90
21445;DHT22;10883;51.946;20.140;2023-02-02T03:19:18;3.50;99.90
21445;DHT22;10883;51.946;20.140;2023-02-02T03:21:44;3.50;99.90
21445;DHT22;10883;51.946;20.140;2023-02-02T03:24:09;3.50;99.90
21445;DHT22;10883;51.946;20.140;2023-02-02T03:26:36;3.50;99.90
21445;DHT22;10883;51.946;20.140;2023-02-02T03:29:02;3.50;99.90
21445;DHT22;10883;51.946;20.140;2023-02-02T03:31:28;3.60;99.90
21445;DHT22;10883;51.946;20.140;2023-02-02T03:33:55;3.60;99.90
21445;DHT22;10883;51.946;20.140;2023-02-02T03:36:21;3.60;99.90
21445;DHT22;10883;51.946;20.140;2023-02-02T03:38:47;3.50;99.90
21445;DHT22;10883;51.946;20.140;2023-02-02T03:41:12;3.50;99.90
21445;DHT22;10883;51.946;20.140;2023-02-02T03:43:38;3.50;99.90
21445;DHT22;10883;51.946;20.140;2023-02-02T03:46:05;3.50;99.90
21445;DHT22;10883;51.946;20.140;2023-02-02T03:48:33;3.50;99.90
21445;DHT22;10883;51.946;20.140;2023-02-02T03:50:59;3.50;99.90
21445;DHT22;10883;51.946;20.140;2023-02-02T03:53:25;3.50;99.90
21445;DHT22;10883;51.946;20.140;2023-02-02T03:55:50;3.50;99.90
21445;DHT22;10883;51.946;20.140;2023-02-02T03:58:16;3.40;99.90
21445;DHT22;10883;51.946;20.140;2023-02-02T04:00:42;3.40;99.90
21445;DHT22;10883;51.946;20.140;2023-02-02T04:03:08;3.40;99.90
21445;DHT22;10883;51.946;20.140;2023-02-02T04:05:34;3.40;99.90
21445;DHT22;10883;51.946;20.140;2023-02-02T04:07:59;3.50;99.90
21445;DHT22;10883;51.946;20.140;2023-02-02T04:10:25;3.50;99.90
21445;DHT22;10883;51.946;20.140;2023-02-02T04:12:51;3.50;99.90
21445;DHT22;10883;51.946;20.140;2023-02-02T04:15:17;3.50;99.90
21445;DHT22;10883;51.946;20.140;2023-02-02T04:17:42;3.50;99.90
21445;DHT22;10883;51.946;20.140;2023-02-02T04:20:09;3.50;99.90
21445;DHT22;10883;51.946;20.140;2023-02-02T04:22:35;3.50;99.90
21445;DHT22;10883;51.946;20.140;2023-02-02T04:25:00;3.50;99.90
21445;DHT22;10883;51.946;20.140;2023-02-02T04:27:26;3.50;99.90
21445;DHT22;10883;51.946;20.140;2023-02-02T04:29:52;3.60;99.90
21445;DHT22;10883;51.946;20.140;2023-02-02T04:32:18;3.60;99.90
21445;DHT22;10883;51.946;20.140;2023-02-02T04:34:44;3.50;99.90
21445;DHT22;10883;51.946;20.140;2023-02-02T04:37:10;3.50;99.90
21445;DHT22;10883;51.946;20.140;2023-02-02T04:39:36;3.50;99.90
21445;DHT22;10883;51.946;20.140;2023-02-02T04:42:02;3.60;99.90
21445;DHT22;10883;51.946;20.140;2023-02-02T04:44:28;3.60;99.90
21445;DHT22;10883;51.946;20.140;2023-02-02T04:46:54;3.50;99.90
21445;DHT22;10883;51.946;20.140;2023-02-02T04:49:19;3.50;99.90
21445;DHT22;10883;51.946;20.140;2023-02-02T04:51:46;3.50;99.90
21445;DHT22;10883;51.946;20.140;2023-02-02T04:54:12;3.60;99.90
21445;DHT22;10883;51.946;20.140;2023-02-02T04:56:38;3.60;99.90
21445;DHT22;10883;51.946;20.140;2023-02-02T04:59:04;3.60;99.90
21445;DHT22;10883;51.946;20.140;2023-02-02T05:01:30;3.50;99.90
21445;DHT22;10883;51.946;20.140;2023-02-02T05:03:56;3.50;99.90
21445;DHT22;10883;51.946;20.140;2023-02-02T05:06:22;3.50;99.90
21445;DHT22;10883;51.946;20.140;2023-02-02T05:08:48;3.60;99.90
21445;DHT22;10883;51.946;20.140;2023-02-02T05:11:17;3.50;99.90
21445;DHT22;10883;51.946;20.140;2023-02-02T05:14:01;3.50;99.90
21445;DHT22;10883;51.946;20.140;2023-02-02T05:16:27;3.50;99.90
21445;DHT22;10883;51.946;20.140;2023-02-02T05:18:56;3.50;99.90
21445;DHT22;10883;51.946;20.140;2023-02-02T05:21:23;3.50;99.90
21445;DHT22;10883;51.946;20.140;2023-02-02T05:23:49;3.50;99.90
21445;DHT22;10883;51.946;20.140;2023-02-02T05:26:18;3.50;99.90
21445;DHT22;10883;51.946;20.140;2023-02-02T05:28:45;3.50;99.90
21445;DHT22;10883;51.946;20.140;2023-02-02T05:31:11;3.50;99.90
21445;DHT22;10883;51.946;20.140;2023-02-02T05:33:37;3.40;99.90
21445;DHT22;10883;51.946;20.140;2023-02-02T05:36:03;3.40;99.90
21445;DHT22;10883;51.946;20.140;2023-02-02T05:38:29;3.30;99.90
21445;DHT22;10883;51.946;20.140;2023-02-02T05:40:55;3.30;99.90
21445;DHT22;10883;51.946;20.140;2023-02-02T05:43:24;3.30;99.90
21445;DHT22;10883;51.946;20.140;2023-02-02T05:45:50;3.30;99.90
21445;DHT22;10883;51.946;20.140;2023-02-02T05:48:16;3.30;99.90
21445;DHT22;10883;51.946;20.140;2023-02-02T05:50:42;3.30;99.90
21445;DHT22;10883;51.946;20.140;2023-02-02T05:53:12;3.30;99.90
21445;DHT22;10883;51.946;20.140;2023-02-02T05:55:38;3.20;99.90
21445;DHT22;10883;51.946;20.140;2023-02-02T05:58:04;3.20;99.90
21445;DHT22;10883;51.946;20.140;2023-02-02T06:00:29;3.20;99.90
21445;DHT22;10883;51.946;20.140;2023-02-02T06:02:55;3.20;99.90
21445;DHT22;10883;51.946;20.140;2023-02-02T06:05:21;3.20;99.90
21445;DHT22;10883;51.946;20.140;2023-02-02T06:07:47;3.20;99.90
21445;DHT22;10883;51.946;20.140;2023-02-02T06:10:13;3.10;99.90
21445;DHT22;10883;51.946;20.140;2023-02-02T06:12:38;3.10;99.90
21445;DHT22;10883;51.946;20.140;2023-02-02T06:15:05;3.00;99.90
21445;DHT22;10883;51.946;20.140;2023-02-02T06:17:31;3.00;99.90
21445;DHT22;10883;51.946;20.140;2023-02-02T06:19:56;3.00;99.90
21445;DHT22;10883;51.946;20.140;2023-02-02T06:22:22;2.90;99.90
21445;DHT22;10883;51.946;20.140;2023-02-02T06:24:48;2.90;99.90
21445;DHT22;10883;51.946;20.140;2023-02-02T06:27:14;2.80;99.90
21445;DHT22;10883;51.946;20.140;2023-02-02T06:29:39;2.70;99.90
21445;DHT22;10883;51.946;20.140;2023-02-02T06:32:05;2.70;99.90
21445;DHT22;10883;51.946;20.140;2023-02-02T06:34:31;2.60;99.90
21445;DHT22;10883;51.946;20.140;2023-02-02T06:36:56;2.60;99.90
21445;DHT22;10883;51.946;20.140;2023-02-02T06:39:22;2.50;99.90
21445;DHT22;10883;51.946;20.140;2023-02-02T06:41:48;2.50;99.90
21445;DHT22;10883;51.946;20.140;2023-02-02T06:44:13;2.40;99.90
21445;DHT22;10883;51.946;20.140;2023-02-02T06:46:40;2.50;99.90
21445;DHT22;10883;51.946;20.140;2023-02-02T06:49:06;2.40;99.90
21445;DHT22;10883;51.946;20.140;2023-02-02T06:51:32;2.40;99.90
21445;DHT22;10883;51.946;20.140;2023-02-02T06:53:58;2.40;99.90
21445;DHT22;10883;51.946;20.140;2023-02-02T06:56:23;2.40;99.90
21445;DHT22;10883;51.946;20.140;2023-02-02T06:58:49;2.30;99.90
21445;DHT22;10883;51.946;20.140;2023-02-02T07:01:15;2.40;99.90
21445;DHT22;10883;51.946;20.140;2023-02-02T07:03:41;2.40;99.90
21445;DHT22;10883;51.946;20.140;2023-02-02T07:06:16;2.40;99.90
21445;DHT22;10883;51.946;20.140;2023-02-02T07:08:42;2.50;99.90
21445;DHT22;10883;51.946;20.140;2023-02-02T07:11:08;2.50;99.90
21445;DHT22;10883;51.946;20.140;2023-02-02T07:13:34;2.50;99.90
21445;DHT22;10883;51.946;20.140;2023-02-02T07:16:02;2.50;99.90
21445;DHT22;10883;51.946;20.140;2023-02-02T07:18:28;2.50;99.90
21445;DHT22;10883;51.946;20.140;2023-02-02T07:20:57;2.50;99.90
21445;DHT22;10883;51.946;20.140;2023-02-02T07:23:24;2.50;99.90
21445;DHT22;10883;51.946;20.140;2023-02-02T07:25:59;2.60;99.90
21445;DHT22;10883;51.946;20.140;2023-02-02T07:28:26;2.60;99.90
21445;DHT22;10883;51.946;20.140;2023-02-02T07:30:52;2.60;99.90
21445;DHT22;10883;51.946;20.140;2023-02-02T07:33:18;2.60;99.90
21445;DHT22;10883;51.946;20.140;2023-02-02T07:35:43;2.50;99.90
21445;DHT22;10883;51.946;20.140;2023-02-02T07:38:09;2.50;99.90
21445;DHT22;10883;51.946;20.140;2023-02-02T07:40:35;2.50;99.90
21445;DHT22;10883;51.946;20.140;2023-02-02T07:43:00;2.50;99.90
21445;DHT22;10883;51.946;20.140;2023-02-02T07:45:27;2.40;99.90
21445;DHT22;10883;51.946;20.140;2023-02-02T07:47:57;2.40;99.90
21445;DHT22;10883;51.946;20.140;2023-02-02T07:50:23;2.40;99.90
21445;DHT22;10883;51.946;20.140;2023-02-02T07:52:50;2.30;99.90
21445;DHT22;10883;51.946;20.140;2023-02-02T07:55:16;2.20;99.90
21445;DHT22;10883;51.946;20.140;2023-02-02T07:57:42;2.20;99.90
21445;DHT22;10883;51.946;20.140;2023-02-02T08:00:08;2.20;99.90
21445;DHT22;10883;51.946;20.140;2023-02-02T08:02:34;2.20;99.90
21445;DHT22;10883;51.946;20.140;2023-02-02T08:05:00;2.20;99.90
21445;DHT22;10883;51.946;20.140;2023-02-02T08:07:26;2.20;99.90
21445;DHT22;10883;51.946;20.140;2023-02-02T08:09:51;2.10;99.90
21445;DHT22;10883;51.946;20.140;2023-02-02T08:12:18;2.10;99.90
21445;DHT22;10883;51.946;20.140;2023-02-02T08:14:47;2.00;99.90
21445;DHT22;10883;51.946;20.140;2023-02-02T08:17:14;2.10;99.90
21445;DHT22;10883;51.946;20.140;2023-02-02T08:19:39;2.10;99.90
21445;DHT22;10883;51.946;20.140;2023-02-02T08:22:05;2.20;99.90
21445;DHT22;10883;51.946;20.140;2023-02-02T08:24:31;2.30;99.90
21445;DHT22;10883;51.946;20.140;2023-02-02T08:26:57;2.30;99.90
21445;DHT22;10883;51.946;20.140;2023-02-02T08:29:22;2.40;99.90
21445;DHT22;10883;51.946;20.140;2023-02-02T08:31:48;2.60;99.90
21445;DHT22;10883;51.946;20.140;2023-02-02T08:34:14;2.80;99.90
21445;DHT22;10883;51.946;20.140;2023-02-02T08:36:40;2.90;99.90
21445;DHT22;10883;51.946;20.140;2023-02-02T08:39:09;3.00;99.90
21445;DHT22;10883;51.946;20.140;2023-02-02T08:41:36;3.10;99.90
21445;DHT22;10883;51.946;20.140;2023-02-02T08:44:09;3.20;99.90
21445;DHT22;10883;51.946;20.140;2023-02-02T08:46:36;3.30;99.90
21445;DHT22;10883;51.946;20.140;2023-02-02T08:49:01;3.40;99.90
21445;DHT22;10883;51.946;20.140;2023-02-02T08:51:27;3.40;99.90
21445;DHT22;10883;51.946;20.140;2023-02-02T08:53:53;3.40;99.90
21445;DHT22;10883;51.946;20.140;2023-02-02T08:56:21;3.50;99.90
21445;DHT22;10883;51.946;20.140;2023-02-02T08:58:52;3.60;99.90
21445;DHT22;10883;51.946;20.140;2023-02-02T09:01:24;3.60;99.90
21445;DHT22;10883;51.946;20.140;2023-02-02T09:03:58;3.60;99.90
21445;DHT22;10883;51.946;20.140;2023-02-02T09:06:43;3.70;99.90
21445;DHT22;10883;51.946;20.140;2023-02-02T09:09:14;3.80;99.90
21445;DHT22;10883;51.946;20.140;2023-02-02T09:11:41;3.80;99.90
21445;DHT22;10883;51.946;20.140;2023-02-02T09:14:08;3.80;99.90
21445;DHT22;10883;51.946;20.140;2023-02-02T09:16:35;3.80;99.90
21445;DHT22;10883;51.946;20.140;2023-02-02T09:19:00;3.80;99.90
21445;DHT22;10883;51.946;20.140;2023-02-02T09:21:26;3.90;99.90
21445;DHT22;10883;51.946;20.140;2023-02-02T09:23:53;3.80;99.90
21445;DHT22;10883;51.946;20.140;2023-02-02T09:26:23;3.80;99.90
21445;DHT22;10883;51.946;20.140;2023-02-02T09:28:57;3.80;99.90
21445;DHT22;10883;51.946;20.140;2023-02-02T09:31:24;3.80;99.90
21445;DHT22;10883;51.946;20.140;2023-02-02T09:33:51;3.70;99.90
21445;DHT22;10883;51.946;20.140;2023-02-02T09:36:21;3.70;99.90
21445;DHT22;10883;51.946;20.140;2023-02-02T09:38:51;3.70;99.90
21445;DHT22;10883;51.946;20.140;2023-02-02T09:52:33;4.00;99.90
21445;DHT22;10883;51.946;20.140;2023-02-02T09:55:17;4.10;99.90
21445;DHT22;10883;51.946;20.140;2023-02-02T09:57:53;4.10;99.90
21445;DHT22;10883;51.946;20.140;2023-02-02T10:00:36;4.20;99.90
21445;DHT22;10883;51.946;20.140;2023-02-02T10:03:16;4.20;99.90
21445;DHT22;10883;51.946;20.140;2023-02-02T10:17:39;4.10;99.90
21445;DHT22;10883;51.946;20.140;2023-02-02T10:22:58;4.10;99.90
21445;DHT22;10883;51.946;20.140;2023-02-02T10:25:28;4.10;99.90
21445;DHT22;10883;51.946;20.140;2023-02-02T10:28:05;4.10;99.90
21445;DHT22;10883;51.946;20.140;2023-02-02T10:30:44;4.20;99.90
21445;DHT22;10883;51.946;20.140;2023-02-02T10:33:38;4.20;99.90
21445;DHT22;10883;51.946;20.140;2023-02-02T10:36:27;4.20;99.90
21445;DHT22;10883;51.946;20.140;2023-02-02T10:39:25;4.20;99.90
21445;DHT22;10883;51.946;20.140;2023-02-02T10:42:08;4.20;99.90
21445;DHT22;10883;51.946;20.140;2023-02-02T10:44:48;4.20;99.90
21445;DHT22;10883;51.946;20.140;2023-02-02T10:47:32;4.20;99.90
21445;DHT22;10883;51.946;20.140;2023-02-02T10:50:18;4.20;99.90
21445;DHT22;10883;51.946;20.140;2023-02-02T10:52:53;4.30;99.90
21445;DHT22;10883;51.946;20.140;2023-02-02T10:55:47;4.40;99.90
21445;DHT22;10883;51.946;20.140;2023-02-02T10:58:31;4.50;99.90
21445;DHT22;10883;51.946;20.140;2023-02-02T11:01:00;4.50;99.90
21445;DHT22;10883;51.946;20.140;2023-02-02T11:03:32;4.70;99.90
21445;DHT22;10883;51.946;20.140;2023-02-02T11:06:00;4.60;99.90
21445;DHT22;10883;51.946;20.140;2023-02-02T11:08:51;4.50;99.90
21445;DHT22;10883;51.946;20.140;2023-02-02T11:11:34;4.30;99.90
21445;DHT22;10883;51.946;20.140;2023-02-02T11:16:38;4.40;99.90
21445;DHT22;10883;51.946;20.140;2023-02-02T11:19:27;4.30;99.90
21445;DHT22;10883;51.946;20.140;2023-02-02T11:21:56;4.30;99.90
21445;DHT22;10883;51.946;20.140;2023-02-02T11:27:22;4.30;99.90
21445;DHT22;10883;51.946;20.140;2023-02-02T11:29:50;4.20;99.90
21445;DHT22;10883;51.946;20.140;2023-02-02T11:32:32;4.20;99.90
21445;DHT22;10883;51.946;20.140;2023-02-02T11:37:27;4.10;99.90
21445;DHT22;10883;51.946;20.140;2023-02-02T11:39:53;4.10;99.90
21445;DHT22;10883;51.946;20.140;2023-02-02T11:42:21;4.10;99.90
21445;DHT22;10883;51.946;20.140;2023-02-02T11:44:53;4.10;99.90
21445;DHT22;10883;51.946;20.140;2023-02-02T11:47:29;4.00;99.90
21445;DHT22;10883;51.946;20.140;2023-02-02T11:49:56;4.00;99.90
21445;DHT22;10883;51.946;20.140;2023-02-02T11:52:25;4.00;99.90
21445;DHT22;10883;51.946;20.140;2023-02-02T11:54:57;4.00;99.90
21445;DHT22;10883;51.946;20.140;2023-02-02T11:57:25;4.00;99.90
21445;DHT22;10883;51.946;20.140;2023-02-02T12:02:45;3.90;99.90
21445;DHT22;10883;51.946;20.140;2023-02-02T12:07:48;3.90;99.90
21445;DHT22;10883;51.946;20.140;2023-02-02T12:18:51;3.90;99.90
21445;DHT22;10883;51.946;20.140;2023-02-02T12:21:04;3.90;99.90
21445;DHT22;10883;51.946;20.140;2023-02-02T12:24:08;3.90;99.90
21445;DHT22;10883;51.946;20.140;2023-02-02T12:26:39;4.10;99.90
21445;DHT22;10883;51.946;20.140;2023-02-02T12:34:46;4.50;99.90
21445;DHT22;10883;51.946;20.140;2023-02-02T12:37:21;4.60;99.90
21445;DHT22;10883;51.946;20.140;2023-02-02T12:40:02;4.60;99.90
21445;DHT22;10883;51.946;20.140;2023-02-02T12:42:59;4.60;99.90
21445;DHT22;10883;51.946;20.140;2023-02-02T12:48:13;4.60;99.90
21445;DHT22;10883;51.946;20.140;2023-02-02T12:53:39;4.50;99.90
21445;DHT22;10883;51.946;20.140;2023-02-02T12:56:16;4.60;99.90
21445;DHT22;10883;51.946;20.140;2023-02-02T13:02:02;4.60;99.90
21445;DHT22;10883;51.946;20.140;2023-02-02T13:04:56;4.70;99.90
21445;DHT22;10883;51.946;20.140;2023-02-02T13:10:31;5.20;99.90
21445;DHT22;10883;51.946;20.140;2023-02-02T13:15:35;8.80;99.90
21445;DHT22;10883;51.946;20.140;2023-02-02T13:18:17;9.80;99.90
21445;DHT22;10883;51.946;20.140;2023-02-02T13:20:50;9.30;99.90
21445;DHT22;10883;51.946;20.140;2023-02-02T13:28:51;8.40;99.90
21445;DHT22;10883;51.946;20.140;2023-02-02T13:31:24;7.30;99.90
21445;DHT22;10883;51.946;20.140;2023-02-02T13:34:03;7.30;99.90
21445;DHT22;10883;51.946;20.140;2023-02-02T13:36:33;8.40;99.90
21445;DHT22;10883;51.946;20.140;2023-02-02T13:39:19;11.00;99.90
21445;DHT22;10883;51.946;20.140;2023-02-02T13:41:46;13.90;99.90
21445;DHT22;10883;51.946;20.140;2023-02-02T13:44:24;13.20;99.90
21445;DHT22;10883;51.946;20.140;2023-02-02T13:49:35;8.90;99.90
21445;DHT22;10883;51.946;20.140;2023-02-02T13:52:24;7.40;99.90
21445;DHT22;10883;51.946;20.140;2023-02-02T14:00:52;5.90;99.90
21445;DHT22;10883;51.946;20.140;2023-02-02T14:06:19;6.00;99.90
21445;DHT22;10883;51.946;20.140;2023-02-02T14:09:14;5.90;99.90
21445;DHT22;10883;51.946;20.140;2023-02-02T14:11:36;5.90;99.90
21445;DHT22;10883;51.946;20.140;2023-02-02T14:14:13;6.00;99.90
21445;DHT22;10883;51.946;20.140;2023-02-02T14:19:50;7.90;99.90
21445;DHT22;10883;51.946;20.140;2023-02-02T14:22:19;8.60;99.90
21445;DHT22;10883;51.946;20.140;2023-02-02T14:25:03;8.30;99.90
21445;DHT22;10883;51.946;20.140;2023-02-02T14:43:14;5.20;99.90
21445;DHT22;10883;51.946;20.140;2023-02-02T14:51:24;4.80;99.90
21445;DHT22;10883;51.946;20.140;2023-02-02T14:53:57;4.80;99.90
21445;DHT22;10883;51.946;20.140;2023-02-02T14:56:49;4.70;99.90
21445;DHT22;10883;51.946;20.140;2023-02-02T14:59:23;4.60;99.90
21445;DHT22;10883;51.946;20.140;2023-02-02T15:04:37;4.30;99.90
21445;DHT22;10883;51.946;20.140;2023-02-02T15:07:34;4.20;99.90
21445;DHT22;10883;51.946;20.140;2023-02-02T15:10:00;4.00;99.90
21445;DHT22;10883;51.946;20.140;2023-02-02T15:12:34;3.80;99.90
21445;DHT22;10883;51.946;20.140;2023-02-02T15:20:32;3.40;99.90
21445;DHT22;10883;51.946;20.140;2023-02-02T15:23:31;3.20;99.90
21445;DHT22;10883;51.946;20.140;2023-02-02T15:26:05;3.10;99.90
21445;DHT22;10883;51.946;20.140;2023-02-02T15:28:58;3.00;99.90
21445;DHT22;10883;51.946;20.140;2023-02-02T15:31:30;3.00;99.90
21445;DHT22;10883;51.946;20.140;2023-02-02T15:34:46;2.90;99.90
21445;DHT22;10883;51.946;20.140;2023-02-02T15:36:49;2.90;99.90
21445;DHT22;10883;51.946;20.140;2023-02-02T15:41:53;2.80;99.90
21445;DHT22;10883;51.946;20.140;2023-02-02T15:44:40;2.70;99.90
21445;DHT22;10883;51.946;20.140;2023-02-02T15:47:15;2.70;99.90
21445;DHT22;10883;51.946;20.140;2023-02-02T15:49:42;2.70;99.90
21445;DHT22;10883;51.946;20.140;2023-02-02T15:52:41;2.70;99.90
21445;DHT22;10883;51.946;20.140;2023-02-02T15:55:23;2.80;99.90
21445;DHT22;10883;51.946;20.140;2023-02-02T15:57:49;2.90;99.90
21445;DHT22;10883;51.946;20.140;2023-02-02T16:03:17;3.10;99.90
21445;DHT22;10883;51.946;20.140;2023-02-02T16:08:17;3.20;99.90
21445;DHT22;10883;51.946;20.140;2023-02-02T16:10:45;3.30;99.90
21445;DHT22;10883;51.946;20.140;2023-02-02T16:13:25;3.40;99.90
21445;DHT22;10883;51.946;20.140;2023-02-02T16:15:56;3.40;99.90
21445;DHT22;10883;51.946;20.140;2023-02-02T16:18:22;3.40;99.90
21445;DHT22;10883;51.946;20.140;2023-02-02T16:20:48;3.40;99.90
21445;DHT22;10883;51.946;20.140;2023-02-02T16:23:27;3.30;99.90
21445;DHT22;10883;51.946;20.140;2023-02-02T16:25:55;3.20;99.90
21445;DHT22;10883;51.946;20.140;2023-02-02T16:28:22;3.10;99.90
21445;DHT22;10883;51.946;20.140;2023-02-02T16:30:48;3.20;99.90
21445;DHT22;10883;51.946;20.140;2023-02-02T16:35:54;3.20;99.90
21445;DHT22;10883;51.946;20.140;2023-02-02T16:38:24;3.10;99.90
21445;DHT22;10883;51.946;20.140;2023-02-02T16:43:29;3.00;99.90
21445;DHT22;10883;51.946;20.140;2023-02-02T16:46:13;2.90;99.90
21445;DHT22;10883;51.946;20.140;2023-02-02T16:48:58;2.90;99.90
21445;DHT22;10883;51.946;20.140;2023-02-02T16:51:29;2.90;99.90
21445;DHT22;10883;51.946;20.140;2023-02-02T16:54:21;3.00;99.90
21445;DHT22;10883;51.946;20.140;2023-02-02T16:56:50;2.90;99.90
21445;DHT22;10883;51.946;20.140;2023-02-02T16:59:34;2.90;99.90
21445;DHT22;10883;51.946;20.140;2023-02-02T17:04:47;2.90;99.90
21445;DHT22;10883;51.946;20.140;2023-02-02T17:07:14;2.80;99.90
21445;DHT22;10883;51.946;20.140;2023-02-02T17:09:43;2.60;99.90
21445;DHT22;10883;51.946;20.140;2023-02-02T17:14:55;2.50;99.90
21445;DHT22;10883;51.946;20.140;2023-02-02T17:17:24;2.40;99.90
21445;DHT22;10883;51.946;20.140;2023-02-02T17:19:50;2.50;99.90
21445;DHT22;10883;51.946;20.140;2023-02-02T17:22:19;2.40;99.90
21445;DHT22;10883;51.946;20.140;2023-02-02T17:24:48;2.50;99.90
21445;DHT22;10883;51.946;20.140;2023-02-02T17:27:29;2.50;99.90
21445;DHT22;10883;51.946;20.140;2023-02-02T17:29:56;2.50;99.90
21445;DHT22;10883;51.946;20.140;2023-02-02T17:32:22;2.50;99.90
21445;DHT22;10883;51.946;20.140;2023-02-02T17:34:49;2.60;99.90
21445;DHT22;10883;51.946;20.140;2023-02-02T17:37:15;2.60;99.90
21445;DHT22;10883;51.946;20.140;2023-02-02T17:39:41;2.70;99.90
21445;DHT22;10883;51.946;20.140;2023-02-02T17:42:22;2.70;99.90
21445;DHT22;10883;51.946;20.140;2023-02-02T17:44:49;2.70;99.90
21445;DHT22;10883;51.946;20.140;2023-02-02T17:47:14;2.70;99.90
21445;DHT22;10883;51.946;20.140;2023-02-02T17:49:40;2.80;99.90
21445;DHT22;10883;51.946;20.140;2023-02-02T17:52:07;2.80;99.90
21445;DHT22;10883;51.946;20.140;2023-02-02T17:54:34;2.80;99.90
21445;DHT22;10883;51.946;20.140;2023-02-02T17:56:59;2.80;99.90
21445;DHT22;10883;51.946;20.140;2023-02-02T17:59:25;2.80;99.90
21445;DHT22;10883;51.946;20.140;2023-02-02T18:01:51;2.90;99.90
21445;DHT22;10883;51.946;20.140;2023-02-02T18:04:20;2.80;99.90
21445;DHT22;10883;51.946;20.140;2023-02-02T18:06:47;2.80;99.90
21445;DHT22;10883;51.946;20.140;2023-02-02T18:09:12;2.80;99.90
21445;DHT22;10883;51.946;20.140;2023-02-02T18:11:38;2.80;99.90
21445;DHT22;10883;51.946;20.140;2023-02-02T18:14:04;2.80;99.90
21445;DHT22;10883;51.946;20.140;2023-02-02T18:16:30;2.70;99.90
21445;DHT22;10883;51.946;20.140;2023-02-02T18:18:55;2.70;99.90
21445;DHT22;10883;51.946;20.140;2023-02-02T18:21:23;2.70;99.90
21445;DHT22;10883;51.946;20.140;2023-02-02T18:23:51;2.70;99.90